Terminal Aerodrome Forecast
Issued by NWS

Home | Current Version | Previous Version | Text Only | Print | Product List | Glossary On
Versions: 1 2 3 4 5 6 7 8 9 10 11 12 13 14 15 16 17 18 19 20 21 22 23 24 25 26
253
FTUS43 KDVN 281130
TAFBRL
TAF
KBRL 281130Z 2812/2912 18010KT P6SM SCT007 BKN018
     FM281300 19010KT P6SM SCT018 BKN200
     FM281930 20012G17KT P6SM VCTS SCT030CB BKN200
      TEMPO 2820/2822 VRB20G30KT 3SM TSRA BR BKN020CB
     FM290000 21007KT P6SM SCT030 BKN070
     FM290800 23005KT 6SM BR SCT080=

USA.gov is the U.S. government's official web portal to all federal, state and local government web resources and services.